sensor_id;sensor_type;location;lat;lon;timestamp;pressure;altitude;pressure_sealevel;temperature;humidity
21779;BME280;11050;52.222;20.916;2022-12-18T00:01:34;101481.34;;;-2.68;100.00
21779;BME280;11050;52.222;20.916;2022-12-18T00:04:02;101495.22;;;-2.54;100.00
21779;BME280;11050;52.222;20.916;2022-12-18T00:06:30;101499.47;;;-2.51;100.00
21779;BME280;11050;52.222;20.916;2022-12-18T00:08:57;101496.34;;;-2.47;100.00
21779;BME280;11050;52.222;20.916;2022-12-18T00:11:27;101501.63;;;-2.45;100.00
21779;BME280;11050;52.222;20.916;2022-12-18T00:13:56;101507.56;;;-2.42;100.00
21779;BME280;11050;52.222;20.916;2022-12-18T00:16:24;101509.97;;;-2.39;100.00
21779;BME280;11050;52.222;20.916;2022-12-18T00:18:55;101508.13;;;-2.38;100.00
21779;BME280;11050;52.222;20.916;2022-12-18T00:21:22;101505.59;;;-2.40;100.00
21779;BME280;11050;52.222;20.916;2022-12-18T00:23:49;101504.72;;;-2.40;100.00
21779;BME280;11050;52.222;20.916;2022-12-18T00:26:28;101512.50;;;-2.28;100.00
21779;BME280;11050;52.222;20.916;2022-12-18T00:28:58;101508.69;;;-2.35;100.00
21779;BME280;11050;52.222;20.916;2022-12-18T00:31:25;101512.50;;;-2.28;100.00
21779;BME280;11050;52.222;20.916;2022-12-18T00:33:54;101512.81;;;-2.21;100.00
21779;BME280;11050;52.222;20.916;2022-12-18T00:36:24;101520.72;;;-2.20;100.00
21779;BME280;11050;52.222;20.916;2022-12-18T00:38:51;101522.16;;;-2.25;100.00
21779;BME280;11050;52.222;20.916;2022-12-18T00:41:18;101519.59;;;-2.27;100.00
21779;BME280;11050;52.222;20.916;2022-12-18T00:44:04;101529.81;;;-2.21;100.00
21779;BME280;11050;52.222;20.916;2022-12-18T00:46:31;101540.00;;;-2.15;100.00
21779;BME280;11050;52.222;20.916;2022-12-18T00:48:56;101551.06;;;-2.08;100.00
21779;BME280;11050;52.222;20.916;2022-12-18T00:51:23;101545.81;;;-2.10;100.00
21779;BME280;11050;52.222;20.916;2022-12-18T00:53:49;101552.19;;;-2.11;99.70
21779;BME280;11050;52.222;20.916;2022-12-18T00:56:15;101547.81;;;-2.12;100.00
21779;BME280;11050;52.222;20.916;2022-12-18T00:58:41;101551.47;;;-2.13;99.70
21779;BME280;11050;52.222;20.916;2022-12-18T01:01:07;101557.56;;;-2.11;99.92
21779;BME280;11050;52.222;20.916;2022-12-18T01:03:34;101556.72;;;-2.11;99.80
21779;BME280;11050;52.222;20.916;2022-12-18T01:06:06;101551.63;;;-2.14;99.68
21779;BME280;11050;52.222;20.916;2022-12-18T01:08:31;101565.50;;;-2.09;99.76
21779;BME280;11050;52.222;20.916;2022-12-18T01:10:57;101568.91;;;-2.07;98.71
21779;BME280;11050;52.222;20.916;2022-12-18T01:13:23;101571.88;;;-2.10;98.73
21779;BME280;11050;52.222;20.916;2022-12-18T01:15:50;101565.50;;;-2.09;98.89
21779;BME280;11050;52.222;20.916;2022-12-18T01:18:16;101567.06;;;-2.16;98.82
21779;BME280;11050;52.222;20.916;2022-12-18T01:20:42;101571.59;;;-2.26;98.86
21779;BME280;11050;52.222;20.916;2022-12-18T01:23:08;101566.09;;;-2.25;98.88
21779;BME280;11050;52.222;20.916;2022-12-18T01:25:36;101578.28;;;-2.21;98.43
21779;BME280;11050;52.222;20.916;2022-12-18T01:28:02;101576.97;;;-2.17;98.87
21779;BME280;11050;52.222;20.916;2022-12-18T01:30:28;101579.97;;;-2.20;98.70
21779;BME280;11050;52.222;20.916;2022-12-18T01:32:54;101591.84;;;-2.22;98.74
21779;BME280;11050;52.222;20.916;2022-12-18T01:35:20;101590.72;;;-2.20;98.73
21779;BME280;11050;52.222;20.916;2022-12-18T01:37:46;101598.66;;;-2.18;98.89
21779;BME280;11050;52.222;20.916;2022-12-18T01:40:12;101602.22;;;-2.18;98.67
21779;BME280;11050;52.222;20.916;2022-12-18T01:42:38;101600.78;;;-2.22;98.94
21779;BME280;11050;52.222;20.916;2022-12-18T01:45:26;101611.97;;;-2.17;99.23
21779;BME280;11050;52.222;20.916;2022-12-18T01:48:06;101614.66;;;-2.17;99.40
21779;BME280;11050;52.222;20.916;2022-12-18T01:50:38;101606.16;;;-2.22;99.09
21779;BME280;11050;52.222;20.916;2022-12-18T01:53:17;101604.75;;;-2.16;99.16
21779;BME280;11050;52.222;20.916;2022-12-18T01:55:51;101613.56;;;-2.14;99.27
21779;BME280;11050;52.222;20.916;2022-12-18T01:58:20;101611.72;;;-2.14;98.99
21779;BME280;11050;52.222;20.916;2022-12-18T02:00:48;101607.03;;;-2.21;99.49
21779;BME280;11050;52.222;20.916;2022-12-18T02:03:14;101634.13;;;-2.13;99.62
21779;BME280;11050;52.222;20.916;2022-12-18T02:06:30;101621.22;;;-2.10;99.29
21779;BME280;11050;52.222;20.916;2022-12-18T02:11:59;101621.34;;;-2.11;98.41
21779;BME280;11050;52.222;20.916;2022-12-18T02:14:38;101639.78;;;-2.07;98.56
21779;BME280;11050;52.222;20.916;2022-12-18T02:17:21;101646.56;;;-2.12;98.09
21779;BME280;11050;52.222;20.916;2022-12-18T02:28:43;101666.84;;;-2.18;98.89
21779;BME280;11050;52.222;20.916;2022-12-18T02:31:19;101652.66;;;-2.20;98.83
21779;BME280;11050;52.222;20.916;2022-12-18T02:33:48;101670.53;;;-2.09;99.37
21779;BME280;11050;52.222;20.916;2022-12-18T02:36:18;101668.53;;;-2.07;98.93
21779;BME280;11050;52.222;20.916;2022-12-18T02:38:46;101674.06;;;-2.09;99.07
21779;BME280;11050;52.222;20.916;2022-12-18T02:41:14;101674.94;;;-2.08;99.37
21779;BME280;11050;52.222;20.916;2022-12-18T02:43:55;101680.59;;;-2.02;99.14
21779;BME280;11050;52.222;20.916;2022-12-18T02:46:36;101676.22;;;-2.03;98.67
21779;BME280;11050;52.222;20.916;2022-12-18T02:49:24;101676.94;;;-2.01;98.64
21779;BME280;11050;52.222;20.916;2022-12-18T02:55:38;101691.09;;;-1.99;98.21
21779;BME280;11050;52.222;20.916;2022-12-18T03:00:21;101703.28;;;-2.04;98.16
21779;BME280;11050;52.222;20.916;2022-12-18T03:03:03;101713.78;;;-2.01;97.99
21779;BME280;11050;52.222;20.916;2022-12-18T03:05:44;101710.81;;;-2.08;97.72
21779;BME280;11050;52.222;20.916;2022-12-18T03:08:18;101723.13;;;-2.05;97.90
21779;BME280;11050;52.222;20.916;2022-12-18T03:11:02;101727.94;;;-2.09;98.04
21779;BME280;11050;52.222;20.916;2022-12-18T03:13:48;101714.19;;;-2.15;97.86
21779;BME280;11050;52.222;20.916;2022-12-18T03:16:26;101715.88;;;-2.14;97.73
21779;BME280;11050;52.222;20.916;2022-12-18T03:19:05;101732.59;;;-2.11;97.39
21779;BME280;11050;52.222;20.916;2022-12-18T03:21:51;101732.75;;;-2.12;97.22
21779;BME280;11050;52.222;20.916;2022-12-18T03:24:21;101728.91;;;-2.19;97.63
21779;BME280;11050;52.222;20.916;2022-12-18T03:26:53;101746.63;;;-2.07;97.48
21779;BME280;11050;52.222;20.916;2022-12-18T03:29:38;101746.38;;;-2.04;96.83
21779;BME280;11050;52.222;20.916;2022-12-18T03:32:16;101748.50;;;-2.08;96.59
21779;BME280;11050;52.222;20.916;2022-12-18T03:34:49;101755.56;;;-2.07;96.49
21779;BME280;11050;52.222;20.916;2022-12-18T03:37:16;101754.72;;;-2.07;96.51
21779;BME280;11050;52.222;20.916;2022-12-18T03:39:42;101760.66;;;-2.04;96.24
21779;BME280;11050;52.222;20.916;2022-12-18T03:42:26;101747.06;;;-2.12;96.38
21779;BME280;11050;52.222;20.916;2022-12-18T03:45:20;101761.97;;;-2.08;95.94
21779;BME280;11050;52.222;20.916;2022-12-18T03:48:03;101764.91;;;-2.11;96.26
21779;BME280;11050;52.222;20.916;2022-12-18T03:50:56;101756.84;;;-2.11;96.34
21779;BME280;11050;52.222;20.916;2022-12-18T03:56:18;101766.84;;;-2.22;96.06
21779;BME280;11050;52.222;20.916;2022-12-18T03:58:47;101764.59;;;-2.27;95.99
21779;BME280;11050;52.222;20.916;2022-12-18T04:01:16;101774.94;;;-2.22;96.23
21779;BME280;11050;52.222;20.916;2022-12-18T04:03:46;101766.09;;;-2.34;95.83
21779;BME280;11050;52.222;20.916;2022-12-18T04:06:14;101788.53;;;-2.24;96.41
21779;BME280;11050;52.222;20.916;2022-12-18T04:08:41;101787.66;;;-2.24;96.64
21779;BME280;11050;52.222;20.916;2022-12-18T04:11:08;101792.66;;;-2.20;96.15
21779;BME280;11050;52.222;20.916;2022-12-18T04:13:38;101801.13;;;-2.24;95.31
21779;BME280;11050;52.222;20.916;2022-12-18T04:16:04;101804.97;;;-2.27;95.91
21779;BME280;11050;52.222;20.916;2022-12-18T04:18:31;101808.63;;;-2.28;95.79
21779;BME280;11050;52.222;20.916;2022-12-18T04:20:57;101818.09;;;-2.33;95.92
21779;BME280;11050;52.222;20.916;2022-12-18T04:23:22;101807.41;;;-2.44;96.17
21779;BME280;11050;52.222;20.916;2022-12-18T04:25:48;101818.03;;;-2.43;96.39
21779;BME280;11050;52.222;20.916;2022-12-18T04:28:14;101819.72;;;-2.51;96.33
21779;BME280;11050;52.222;20.916;2022-12-18T04:30:40;101824.69;;;-2.47;96.44
21779;BME280;11050;52.222;20.916;2022-12-18T04:33:13;101818.72;;;-2.50;95.76
21779;BME280;11050;52.222;20.916;2022-12-18T04:35:40;101825.63;;;-2.57;96.29
21779;BME280;11050;52.222;20.916;2022-12-18T04:38:07;101817.47;;;-2.67;96.49
21779;BME280;11050;52.222;20.916;2022-12-18T04:40:36;101831.78;;;-2.66;96.72
21779;BME280;11050;52.222;20.916;2022-12-18T04:43:02;101832.81;;;-2.78;96.82
21779;BME280;11050;52.222;20.916;2022-12-18T04:45:30;101846.47;;;-2.91;96.85
21779;BME280;11050;52.222;20.916;2022-12-18T04:48:01;101850.47;;;-3.06;97.90
21779;BME280;11050;52.222;20.916;2022-12-18T04:50:28;101851.47;;;-3.18;98.48
21779;BME280;11050;52.222;20.916;2022-12-18T04:52:54;101846.53;;;-3.34;99.65
21779;BME280;11050;52.222;20.916;2022-12-18T04:55:21;101851.56;;;-3.40;100.00
21779;BME280;11050;52.222;20.916;2022-12-18T04:57:51;101846.81;;;-3.48;100.00
21779;BME280;11050;52.222;20.916;2022-12-18T05:00:17;101850.50;;;-3.60;100.00
21779;BME280;11050;52.222;20.916;2022-12-18T05:02:43;101856.88;;;-3.72;100.00
21779;BME280;11050;52.222;20.916;2022-12-18T05:05:09;101858.84;;;-3.74;100.00
21779;BME280;11050;52.222;20.916;2022-12-18T05:07:35;101859.69;;;-3.73;100.00
21779;BME280;11050;52.222;20.916;2022-12-18T05:10:01;101874.78;;;-3.61;100.00
21779;BME280;11050;52.222;20.916;2022-12-18T05:12:27;101886.28;;;-3.59;100.00
21779;BME280;11050;52.222;20.916;2022-12-18T05:14:53;101871.50;;;-3.65;100.00
21779;BME280;11050;52.222;20.916;2022-12-18T05:17:18;101879.81;;;-3.57;100.00
21779;BME280;11050;52.222;20.916;2022-12-18T05:19:44;101891.41;;;-3.45;100.00
21779;BME280;11050;52.222;20.916;2022-12-18T05:22:10;101890.03;;;-3.40;100.00
21779;BME280;11050;52.222;20.916;2022-12-18T05:24:36;101892.31;;;-3.35;100.00
21779;BME280;11050;52.222;20.916;2022-12-18T05:27:02;101905.53;;;-3.32;100.00
21779;BME280;11050;52.222;20.916;2022-12-18T05:29:27;101901.47;;;-3.27;100.00
21779;BME280;11050;52.222;20.916;2022-12-18T05:31:53;101905.03;;;-3.26;100.00
21779;BME280;11050;52.222;20.916;2022-12-18T05:34:19;101902.53;;;-3.18;100.00
21779;BME280;11050;52.222;20.916;2022-12-18T05:36:45;101899.13;;;-3.20;100.00
21779;BME280;11050;52.222;20.916;2022-12-18T05:39:11;101909.66;;;-3.17;100.00
21779;BME280;11050;52.222;20.916;2022-12-18T05:41:36;101916.84;;;-3.18;100.00
21779;BME280;11050;52.222;20.916;2022-12-18T05:44:02;101925.50;;;-3.14;100.00
21779;BME280;11050;52.222;20.916;2022-12-18T05:46:28;101916.94;;;-3.08;100.00
21779;BME280;11050;52.222;20.916;2022-12-18T05:48:55;101917.41;;;-3.03;100.00
21779;BME280;11050;52.222;20.916;2022-12-18T05:51:22;101925.09;;;-2.99;100.00
21779;BME280;11050;52.222;20.916;2022-12-18T05:53:48;101913.50;;;-2.99;100.00
21779;BME280;11050;52.222;20.916;2022-12-18T05:56:20;101926.56;;;-2.95;100.00
21779;BME280;11050;52.222;20.916;2022-12-18T05:58:46;101927.41;;;-2.94;100.00
21779;BME280;11050;52.222;20.916;2022-12-18T06:01:16;101918.63;;;-2.96;100.00
21779;BME280;11050;52.222;20.916;2022-12-18T06:03:43;101920.91;;;-2.92;100.00
21779;BME280;11050;52.222;20.916;2022-12-18T06:06:20;101931.50;;;-2.79;100.00
21779;BME280;11050;52.222;20.916;2022-12-18T06:08:48;101938.34;;;-2.75;100.00
21779;BME280;11050;52.222;20.916;2022-12-18T06:11:19;101940.28;;;-2.77;100.00
21779;BME280;11050;52.222;20.916;2022-12-18T06:13:45;101949.69;;;-2.71;100.00
21779;BME280;11050;52.222;20.916;2022-12-18T06:16:12;101947.25;;;-2.74;100.00
21779;BME280;11050;52.222;20.916;2022-12-18T06:18:38;101962.50;;;-2.64;100.00
21779;BME280;11050;52.222;20.916;2022-12-18T06:21:04;101969.47;;;-2.61;100.00
21779;BME280;11050;52.222;20.916;2022-12-18T06:23:30;101969.34;;;-2.60;100.00
21779;BME280;11050;52.222;20.916;2022-12-18T06:25:56;101960.81;;;-2.65;100.00
21779;BME280;11050;52.222;20.916;2022-12-18T06:28:22;101967.50;;;-2.59;100.00
21779;BME280;11050;52.222;20.916;2022-12-18T06:30:48;101986.06;;;-2.56;100.00
21779;BME280;11050;52.222;20.916;2022-12-18T06:33:16;101987.94;;;-2.57;100.00
21779;BME280;11050;52.222;20.916;2022-12-18T06:35:42;101990.25;;;-2.63;100.00
21779;BME280;11050;52.222;20.916;2022-12-18T06:38:08;101994.53;;;-2.61;100.00
21779;BME280;11050;52.222;20.916;2022-12-18T06:40:34;102000.66;;;-2.59;100.00
21779;BME280;11050;52.222;20.916;2022-12-18T06:42:59;102002.47;;;-2.59;100.00
21779;BME280;11050;52.222;20.916;2022-12-18T06:45:25;102004.81;;;-2.55;100.00
21779;BME280;11050;52.222;20.916;2022-12-18T06:47:51;102011.66;;;-2.51;100.00
21779;BME280;11050;52.222;20.916;2022-12-18T06:50:17;102026.53;;;-2.47;100.00
21779;BME280;11050;52.222;20.916;2022-12-18T06:52:43;102018.66;;;-2.39;100.00
21779;BME280;11050;52.222;20.916;2022-12-18T06:55:10;102024.66;;;-2.35;100.00
21779;BME280;11050;52.222;20.916;2022-12-18T06:57:37;102038.50;;;-2.40;100.00
21779;BME280;11050;52.222;20.916;2022-12-18T07:00:06;102028.56;;;-2.39;100.00
21779;BME280;11050;52.222;20.916;2022-12-18T07:02:32;102042.91;;;-2.39;100.00
21779;BME280;11050;52.222;20.916;2022-12-18T07:04:58;102026.03;;;-2.41;100.00
21779;BME280;11050;52.222;20.916;2022-12-18T07:07:24;102039.31;;;-2.28;100.00
21779;BME280;11050;52.222;20.916;2022-12-18T07:09:50;102043.56;;;-2.26;100.00
21779;BME280;11050;52.222;20.916;2022-12-18T07:12:16;102046.94;;;-2.13;100.00
21779;BME280;11050;52.222;20.916;2022-12-18T07:14:42;102052.91;;;-2.09;100.00
21779;BME280;11050;52.222;20.916;2022-12-18T07:17:08;102044.59;;;-2.06;100.00
21779;BME280;11050;52.222;20.916;2022-12-18T07:19:34;102046.81;;;-2.11;100.00
21779;BME280;11050;52.222;20.916;2022-12-18T07:22:00;102059.25;;;-1.99;100.00
21779;BME280;11050;52.222;20.916;2022-12-18T07:24:26;102065.56;;;-1.89;100.00
21779;BME280;11050;52.222;20.916;2022-12-18T07:26:52;102060.50;;;-1.82;100.00
21779;BME280;11050;52.222;20.916;2022-12-18T07:29:18;102069.31;;;-1.80;100.00
21779;BME280;11050;52.222;20.916;2022-12-18T07:31:44;102058.66;;;-1.82;100.00
21779;BME280;11050;52.222;20.916;2022-12-18T07:34:14;102068.25;;;-1.89;100.00
21779;BME280;11050;52.222;20.916;2022-12-18T07:36:41;102064.97;;;-1.92;100.00
21779;BME280;11050;52.222;20.916;2022-12-18T07:39:07;102079.88;;;-1.88;100.00
21779;BME280;11050;52.222;20.916;2022-12-18T07:41:33;102084.03;;;-1.84;100.00
21779;BME280;11050;52.222;20.916;2022-12-18T07:43:59;102084.88;;;-1.84;100.00
21779;BME280;11050;52.222;20.916;2022-12-18T07:46:24;102100.25;;;-1.75;99.70
21779;BME280;11050;52.222;20.916;2022-12-18T07:48:50;102085.53;;;-1.92;99.49
21779;BME280;11050;52.222;20.916;2022-12-18T07:51:18;102110.59;;;-1.80;99.01
21779;BME280;11050;52.222;20.916;2022-12-18T07:53:44;102099.47;;;-1.86;99.46
21779;BME280;11050;52.222;20.916;2022-12-18T07:56:12;102113.66;;;-1.84;99.59
21779;BME280;11050;52.222;20.916;2022-12-18T07:58:38;102107.75;;;-1.78;100.00
21779;BME280;11050;52.222;20.916;2022-12-18T08:01:10;102120.00;;;-1.74;98.50
21779;BME280;11050;52.222;20.916;2022-12-18T08:03:38;102114.53;;;-1.84;98.73
21779;BME280;11050;52.222;20.916;2022-12-18T08:06:08;102135.47;;;-1.87;98.26
21779;BME280;11050;52.222;20.916;2022-12-18T08:08:35;102141.97;;;-1.90;98.50
21779;BME280;11050;52.222;20.916;2022-12-18T08:11:01;102135.03;;;-1.92;98.88
21779;BME280;11050;52.222;20.916;2022-12-18T08:13:28;102146.53;;;-1.90;98.83
21779;BME280;11050;52.222;20.916;2022-12-18T08:16:04;102152.38;;;-1.85;99.12
21779;BME280;11050;52.222;20.916;2022-12-18T08:18:34;102154.88;;;-1.73;99.01
21779;BME280;11050;52.222;20.916;2022-12-18T08:21:19;102146.94;;;-1.74;98.17
21779;BME280;11050;52.222;20.916;2022-12-18T08:23:47;102152.25;;;-1.84;98.53
21779;BME280;11050;52.222;20.916;2022-12-18T08:26:13;102167.50;;;-1.73;98.21
21779;BME280;11050;52.222;20.916;2022-12-18T08:28:40;102172.59;;;-1.91;98.01
21779;BME280;11050;52.222;20.916;2022-12-18T08:31:07;102170.03;;;-1.92;98.70
21779;BME280;11050;52.222;20.916;2022-12-18T08:33:34;102167.84;;;-1.99;99.28
21779;BME280;11050;52.222;20.916;2022-12-18T08:36:05;102172.75;;;-1.92;98.99
21779;BME280;11050;52.222;20.916;2022-12-18T08:38:32;102179.56;;;-1.88;99.84
21779;BME280;11050;52.222;20.916;2022-12-18T08:41:00;102186.41;;;-1.84;99.11
21779;BME280;11050;52.222;20.916;2022-12-18T08:43:26;102182.97;;;-1.86;99.72
21779;BME280;11050;52.222;20.916;2022-12-18T08:46:11;102190.78;;;-1.72;99.01
21779;BME280;11050;52.222;20.916;2022-12-18T08:48:37;102179.50;;;-1.66;98.15
21779;BME280;11050;52.222;20.916;2022-12-18T08:51:03;102186.19;;;-1.61;97.26
21779;BME280;11050;52.222;20.916;2022-12-18T08:53:29;102192.19;;;-1.57;96.65
21779;BME280;11050;52.222;20.916;2022-12-18T08:55:56;102168.44;;;-1.63;97.15
21779;BME280;11050;52.222;20.916;2022-12-18T08:58:22;102173.03;;;-1.54;96.91
21779;BME280;11050;52.222;20.916;2022-12-18T09:00:48;102178.91;;;-1.49;96.11
21779;BME280;11050;52.222;20.916;2022-12-18T09:03:16;102192.34;;;-1.38;95.67
21779;BME280;11050;52.222;20.916;2022-12-18T09:05:45;102187.81;;;-1.38;95.25
21779;BME280;11050;52.222;20.916;2022-12-18T09:08:11;102192.41;;;-1.29;94.20
21779;BME280;11050;52.222;20.916;2022-12-18T09:10:49;102200.44;;;-1.18;94.02
21779;BME280;11050;52.222;20.916;2022-12-18T09:13:15;102199.03;;;-1.12;93.94
21779;BME280;11050;52.222;20.916;2022-12-18T09:15:47;102196.72;;;-1.17;93.21
21779;BME280;11050;52.222;20.916;2022-12-18T09:18:15;102218.44;;;-1.18;91.81
21779;BME280;11050;52.222;20.916;2022-12-18T09:20:41;102208.25;;;-1.35;92.43
21779;BME280;11050;52.222;20.916;2022-12-18T09:23:08;102211.22;;;-1.38;93.61
21779;BME280;11050;52.222;20.916;2022-12-18T09:25:35;102220.47;;;-1.31;93.79
21779;BME280;11050;52.222;20.916;2022-12-18T09:28:05;102215.94;;;-1.31;93.49
21779;BME280;11050;52.222;20.916;2022-12-18T09:30:31;102208.06;;;-1.23;93.88
21779;BME280;11050;52.222;20.916;2022-12-18T09:33:00;102204.00;;;-1.17;93.02
21779;BME280;11050;52.222;20.916;2022-12-18T09:35:25;102217.00;;;-1.22;91.96
21779;BME280;11050;52.222;20.916;2022-12-18T09:37:53;102220.75;;;-1.14;92.63
21779;BME280;11050;52.222;20.916;2022-12-18T09:40:23;102219.16;;;-0.96;92.36
21779;BME280;11050;52.222;20.916;2022-12-18T09:42:59;102217.78;;;-0.90;91.67
21779;BME280;11050;52.222;20.916;2022-12-18T09:45:27;102220.94;;;-1.06;91.61
21779;BME280;11050;52.222;20.916;2022-12-18T09:47:55;102199.03;;;-1.12;91.77
21779;BME280;11050;52.222;20.916;2022-12-18T09:52:56;102228.19;;;-1.06;91.50
21779;BME280;11050;52.222;20.916;2022-12-18T09:55:34;102225.44;;;-0.95;90.67
21779;BME280;11050;52.222;20.916;2022-12-18T10:01:10;102235.63;;;-0.99;91.33
21779;BME280;11050;52.222;20.916;2022-12-18T10:03:36;102227.69;;;-1.00;90.76
21779;BME280;11050;52.222;20.916;2022-12-18T10:06:13;102241.53;;;-1.05;90.23
21779;BME280;11050;52.222;20.916;2022-12-18T10:09:10;102248.78;;;-1.05;90.82
21779;BME280;11050;52.222;20.916;2022-12-18T10:20:17;102253.72;;;-1.10;92.39
21779;BME280;11050;52.222;20.916;2022-12-18T10:23:11;102241.47;;;-1.14;91.69
21779;BME280;11050;52.222;20.916;2022-12-18T10:26:09;102235.69;;;-1.10;91.70
21779;BME280;11050;52.222;20.916;2022-12-18T10:28:37;102239.97;;;-1.07;92.20
21779;BME280;11050;52.222;20.916;2022-12-18T10:31:19;102245.19;;;-0.94;91.94
21779;BME280;11050;52.222;20.916;2022-12-18T10:33:46;102239.63;;;-0.93;91.47
21779;BME280;11050;52.222;20.916;2022-12-18T10:36:12;102239.44;;;-1.01;91.72
21779;BME280;11050;52.222;20.916;2022-12-18T10:38:38;102232.06;;;-0.99;92.43
21779;BME280;11050;52.222;20.916;2022-12-18T10:41:25;102229.03;;;-0.85;92.19
21779;BME280;11050;52.222;20.916;2022-12-18T10:44:23;102231.72;;;-0.64;91.27
21779;BME280;11050;52.222;20.916;2022-12-18T10:47:05;102228.97;;;-0.44;91.04
21779;BME280;11050;52.222;20.916;2022-12-18T10:49:34;102211.75;;;-0.43;89.33
21779;BME280;11050;52.222;20.916;2022-12-18T10:52:21;102228.03;;;-0.24;88.60
21779;BME280;11050;52.222;20.916;2022-12-18T10:55:01;102231.06;;;-0.08;88.51
21779;BME280;11050;52.222;20.916;2022-12-18T11:00:21;102237.81;;;0.08;85.99
21779;BME280;11050;52.222;20.916;2022-12-18T11:02:48;102241.22;;;0.00;85.19
21779;BME280;11050;52.222;20.916;2022-12-18T11:05:31;102249.72;;;-0.05;84.48
21779;BME280;11050;52.222;20.916;2022-12-18T11:08:00;102238.16;;;-0.16;84.69
21779;BME280;11050;52.222;20.916;2022-12-18T11:10:39;102232.91;;;-0.18;85.47
21779;BME280;11050;52.222;20.916;2022-12-18T11:13:25;102237.19;;;-0.06;84.69
21779;BME280;11050;52.222;20.916;2022-12-18T11:15:51;102232.22;;;-0.01;84.40
21779;BME280;11050;52.222;20.916;2022-12-18T11:18:22;102238.50;;;0.00;84.26
21779;BME280;11050;52.222;20.916;2022-12-18T11:20:56;102241.47;;;-0.03;84.35
21779;BME280;11050;52.222;20.916;2022-12-18T11:23:24;102238.91;;;-0.05;83.79
21779;BME280;11050;52.222;20.916;2022-12-18T11:25:57;102242.03;;;0.00;83.63
21779;BME280;11050;52.222;20.916;2022-12-18T11:28:29;102215.69;;;-0.17;84.11
21779;BME280;11050;52.222;20.916;2022-12-18T11:31:28;102259.09;;;-0.09;84.03
21779;BME280;11050;52.222;20.916;2022-12-18T11:36:42;102261.81;;;0.01;83.93
21779;BME280;11050;52.222;20.916;2022-12-18T11:39:35;102252.31;;;0.07;84.13
21779;BME280;11050;52.222;20.916;2022-12-18T11:42:39;102232.13;;;0.11;83.75
21779;BME280;11050;52.222;20.916;2022-12-18T11:47:54;102240.28;;;0.58;82.76
21779;BME280;11050;52.222;20.916;2022-12-18T11:50:49;102245.81;;;0.85;80.41
21779;BME280;11050;52.222;20.916;2022-12-18T11:53:16;102251.50;;;1.02;78.97
21779;BME280;11050;52.222;20.916;2022-12-18T12:02:41;102250.19;;;1.15;76.49
21779;BME280;11050;52.222;20.916;2022-12-18T12:17:09;102255.81;;;0.66;77.24
21779;BME280;11050;52.222;20.916;2022-12-18T12:22:52;102262.16;;;0.27;80.39
21779;BME280;11050;52.222;20.916;2022-12-18T12:25:49;102253.41;;;0.04;81.71
21779;BME280;11050;52.222;20.916;2022-12-18T12:32:03;102273.22;;;0.14;82.66
21779;BME280;11050;52.222;20.916;2022-12-18T12:40:41;102294.47;;;0.19;81.60
21779;BME280;11050;52.222;20.916;2022-12-18T12:46:09;102292.84;;;0.07;82.90
21779;BME280;11050;52.222;20.916;2022-12-18T12:49:12;102283.31;;;0.12;82.54
21779;BME280;11050;52.222;20.916;2022-12-18T12:51:43;102297.72;;;0.13;82.62
21779;BME280;11050;52.222;20.916;2022-12-18T12:54:20;102299.84;;;0.09;82.89
21779;BME280;11050;52.222;20.916;2022-12-18T12:57:02;102298.50;;;-0.06;83.66
21779;BME280;11050;52.222;20.916;2022-12-18T12:59:57;102314.75;;;-0.27;84.04
21779;BME280;11050;52.222;20.916;2022-12-18T13:02:45;102325.91;;;-0.41;85.27
21779;BME280;11050;52.222;20.916;2022-12-18T13:08:03;102335.72;;;-0.60;87.41
21779;BME280;11050;52.222;20.916;2022-12-18T13:10:41;102338.38;;;-0.70;87.61
21779;BME280;11050;52.222;20.916;2022-12-18T13:13:13;102338.41;;;-0.81;87.87
21779;BME280;11050;52.222;20.916;2022-12-18T13:16:03;102345.97;;;-0.96;89.47
21779;BME280;11050;52.222;20.916;2022-12-18T13:18:30;102345.38;;;-0.99;90.23
21779;BME280;11050;52.222;20.916;2022-12-18T13:26:39;102350.97;;;-1.12;91.81
21779;BME280;11050;52.222;20.916;2022-12-18T13:31:14;102359.06;;;-1.12;91.71
21779;BME280;11050;52.222;20.916;2022-12-18T13:33:45;102355.28;;;-1.20;92.19
21779;BME280;11050;52.222;20.916;2022-12-18T13:36:33;102342.13;;;-1.45;94.13
21779;BME280;11050;52.222;20.916;2022-12-18T13:41:42;102354.88;;;-1.47;95.03
21779;BME280;11050;52.222;20.916;2022-12-18T13:44:33;102368.38;;;-1.58;95.61
21779;BME280;11050;52.222;20.916;2022-12-18T13:47:03;102364.22;;;-1.62;96.42
21779;BME280;11050;52.222;20.916;2022-12-18T13:49:41;102360.56;;;-1.72;97.80
21779;BME280;11050;52.222;20.916;2022-12-18T13:52:26;102370.59;;;-1.63;97.22
21779;BME280;11050;52.222;20.916;2022-12-18T13:54:59;102361.03;;;-1.67;97.73
21779;BME280;11050;52.222;20.916;2022-12-18T13:57:33;102360.91;;;-1.66;98.03
21779;BME280;11050;52.222;20.916;2022-12-18T14:02:49;102365.22;;;-1.74;98.04
21779;BME280;11050;52.222;20.916;2022-12-18T14:05:35;102372.91;;;-1.81;98.62
21779;BME280;11050;52.222;20.916;2022-12-18T14:08:11;102370.88;;;-1.77;98.78
21779;BME280;11050;52.222;20.916;2022-12-18T14:10:45;102376.13;;;-1.76;99.12
21779;BME280;11050;52.222;20.916;2022-12-18T14:13:26;102382.59;;;-1.67;99.23
21779;BME280;11050;52.222;20.916;2022-12-18T14:15:54;102374.78;;;-1.70;99.02
21779;BME280;11050;52.222;20.916;2022-12-18T14:18:48;102385.16;;;-1.77;99.68
21779;BME280;11050;52.222;20.916;2022-12-18T14:21:29;102373.53;;;-1.88;99.14
21779;BME280;11050;52.222;20.916;2022-12-18T14:26:38;102384.94;;;-1.96;99.62
21779;BME280;11050;52.222;20.916;2022-12-18T14:29:26;102380.88;;;-2.02;100.00
21779;BME280;11050;52.222;20.916;2022-12-18T14:32:15;102375.88;;;-2.06;100.00
21779;BME280;11050;52.222;20.916;2022-12-18T14:34:53;102389.47;;;-2.08;100.00
21779;BME280;11050;52.222;20.916;2022-12-18T14:37:27;102369.50;;;-2.27;100.00